Terminal Aerodrome Forecast
Issued by NWS

Home | Current Version | Previous Version | Graphics & Text | Print | Product List | Glossary On
Versions: 1 2 3 4 5 6 7 8 9 10 11 12 13 14 15 16 17 18
000
FTUS43 KBIS 191700
TAFJMS
TAF
KJMS 191739Z 1918/2018 26010KT P6SM SCT100
     FM200200 30010KT P6SM SCT090
     FM201000 29006KT P6SM SCT130
     FM201600 29014KT P6SM VCSH BKN230=

USA.gov is the U.S. government's official web portal to all federal, state and local government web resources and services.